createdAt,value
2019-02-25T00:02:26.850Z,53.30
2019-02-25T00:05:06.234Z,52.60
2019-02-25T00:07:46.423Z,51.90
2019-02-25T00:13:10.868Z,52.60
2019-02-25T00:15:43.013Z,54.50
2019-02-25T00:18:15.845Z,58.30
2019-02-25T00:20:47.175Z,53.00
2019-02-25T00:23:20.444Z,53.20
2019-02-25T00:25:52.657Z,52.20
2019-02-25T00:28:23.953Z,52.90
2019-02-25T00:31:02.624Z,53.90
2019-02-25T00:33:36.377Z,52.60
2019-02-25T00:36:10.148Z,53.10
2019-02-25T00:38:42.985Z,54.50
2019-02-25T00:41:14.692Z,58.10
2019-02-25T00:43:48.050Z,53.10
2019-02-25T00:48:53.353Z,57.00
2019-02-25T00:51:24.855Z,60.50
2019-02-25T00:53:56.551Z,60.50
2019-02-25T00:56:28.142Z,60.30
2019-02-25T01:01:36.869Z,55.80
2019-02-25T01:04:10.936Z,60.20
2019-02-25T01:06:45.986Z,59.40
2019-02-25T01:09:18.003Z,58.00
2019-02-25T01:11:49.381Z,63.50
2019-02-25T01:16:52.885Z,63.50
2019-02-25T01:24:28.405Z,64.10
2019-02-25T01:29:33.864Z,66.50
2019-02-25T01:32:07.706Z,65.90
2019-02-25T01:34:39.141Z,66.40
2019-02-25T01:37:14.702Z,68.10
2019-02-25T01:42:21.416Z,68.20
2019-02-25T01:44:55.559Z,69.90
2019-02-25T01:47:33.573Z,70.20
2019-02-25T01:50:06.105Z,61.60
2019-02-25T01:52:39.642Z,69.90
2019-02-25T01:57:43.394Z,71.40
2019-02-25T02:02:48.459Z,70.20
2019-02-25T02:05:20.057Z,71.00
2019-02-25T02:07:51.927Z,72.90
2019-02-25T02:10:25.213Z,72.90
2019-02-25T02:17:58.774Z,72.20
2019-02-25T02:20:30.466Z,73.00
2019-02-25T02:23:02.619Z,73.30
2019-02-25T02:25:34.625Z,72.00
2019-02-25T02:28:06.246Z,72.50
2019-02-25T02:33:13.758Z,73.20
2019-02-25T02:35:45.982Z,71.50
2019-02-25T02:38:18.761Z,69.80
2019-02-25T02:43:21.043Z,58.30
2019-02-25T02:46:09.288Z,59.70
2019-02-25T02:51:28.230Z,59.10
2019-02-25T02:54:00.513Z,59.60
2019-02-25T02:56:34.111Z,65.40
2019-02-25T02:59:08.612Z,73.00
2019-02-25T03:09:13.504Z,70.60
2019-02-25T03:11:45.043Z,70.60
2019-02-25T03:14:16.494Z,69.70
2019-02-25T03:19:27.451Z,69.80
2019-02-25T03:24:30.457Z,71.10
2019-02-25T03:27:04.224Z,69.90
2019-02-25T03:29:36.248Z,71.00
2019-02-25T03:37:25.547Z,70.60
2019-02-25T03:45:11.353Z,70.20
2019-02-25T03:47:44.495Z,69.80
2019-02-25T03:50:15.982Z,71.00
2019-02-25T03:52:47.756Z,71.10
2019-02-25T03:55:19.533Z,68.60
2019-02-25T03:57:51.019Z,70.80
2019-02-25T04:02:53.498Z,70.00
2019-02-25T04:15:33.791Z,70.50
2019-02-25T04:20:39.409Z,71.90
2019-02-25T04:23:11.228Z,74.40
2019-02-25T04:25:44.764Z,71.30
2019-02-25T04:28:16.143Z,71.30
2019-02-25T04:30:47.620Z,72.20
2019-02-25T04:38:21.003Z,72.20
2019-02-25T04:40:52.476Z,73.60
2019-02-25T04:45:54.454Z,71.80
2019-02-25T04:48:25.723Z,72.10
2019-02-25T04:50:57.325Z,72.30
2019-02-25T04:55:59.882Z,70.20
2019-02-25T05:01:02.387Z,73.60
2019-02-25T05:03:35.226Z,72.80
2019-02-25T05:11:10.059Z,74.40
2019-02-25T05:16:12.543Z,73.30
2019-02-25T05:21:14.955Z,74.70
2019-02-25T05:23:46.471Z,74.60
2019-02-25T05:26:18.904Z,74.60
2019-02-25T05:28:51.770Z,75.90
2019-02-25T05:33:54.672Z,78.20
2019-02-25T05:41:30.290Z,79.60
2019-02-25T05:46:43.087Z,80.00
2019-02-25T05:51:45.185Z,78.30
2019-02-25T05:54:16.545Z,80.90
2019-02-25T05:59:20.126Z,80.30
2019-02-25T06:01:54.431Z,81.30
2019-02-25T06:11:59.273Z,81.10
2019-02-25T06:17:05.523Z,81.80
2019-02-25T06:19:37.634Z,81.70
2019-02-25T06:22:09.027Z,83.30
2019-02-25T06:27:12.575Z,81.30
2019-02-25T06:29:44.162Z,79.90
2019-02-25T06:32:15.601Z,80.80
2019-02-25T06:34:47.174Z,81.10
2019-02-25T06:37:18.671Z,80.60
2019-02-25T06:39:50.551Z,80.20
2019-02-25T06:42:22.770Z,81.50
2019-02-25T06:44:54.280Z,82.60
2019-02-25T06:49:57.132Z,77.70
2019-02-25T06:52:28.674Z,79.00
2019-02-25T06:55:00.224Z,80.40
2019-02-25T06:57:33.325Z,81.20
2019-02-25T07:00:05.992Z,81.30
2019-02-25T07:02:37.862Z,79.80
2019-02-25T07:05:43.964Z,81.80
2019-02-25T07:08:19.926Z,81.60
2019-02-25T07:11:06.062Z,81.70
2019-02-25T07:13:55.319Z,79.50
2019-02-25T07:16:38.452Z,82.60
2019-02-25T07:19:37.785Z,81.90
2019-02-25T07:22:28.137Z,80.40
2019-02-25T07:25:24.743Z,82.50
2019-02-25T07:28:23.677Z,81.70
2019-02-25T07:31:03.507Z,81.40
2019-02-25T07:33:45.058Z,81.20
2019-02-25T07:36:38.869Z,80.60
2019-02-25T07:39:33.785Z,82.70
2019-02-25T07:42:22.754Z,81.10
2019-02-25T07:45:30.930Z,81.50
2019-02-25T07:48:14.872Z,81.20
2019-02-25T07:53:49.169Z,82.20
2019-02-25T07:56:43.844Z,81.30
2019-02-25T08:02:09.546Z,82.80
2019-02-25T08:07:43.993Z,82.70
2019-02-25T08:13:01.353Z,82.80
2019-02-25T08:15:39.212Z,82.50
2019-02-25T08:18:28.821Z,81.00
2019-02-25T08:24:10.021Z,81.80
2019-02-25T08:29:55.107Z,81.20
2019-02-25T08:32:44.387Z,84.10
2019-02-25T08:36:03.048Z,82.00
2019-02-25T08:38:59.042Z,84.20
2019-02-25T08:44:25.609Z,83.50
2019-02-25T08:47:03.659Z,83.30
2019-02-25T08:49:44.302Z,83.00
2019-02-25T08:54:46.729Z,80.30
2019-02-25T08:59:49.258Z,83.20
2019-02-25T09:02:21.005Z,79.60
2019-02-25T09:09:55.330Z,81.90
2019-02-25T09:12:26.961Z,80.20
2019-02-25T09:14:58.503Z,83.00
2019-02-25T09:17:31.698Z,78.20
2019-02-25T09:20:03.481Z,80.80
2019-02-25T09:22:36.331Z,80.80
2019-02-25T09:27:40.059Z,82.10
2019-02-25T09:30:14.475Z,81.20
2019-02-25T09:32:47.386Z,79.90
2019-02-25T09:35:19.849Z,81.60
2019-02-25T09:37:52.746Z,82.40
2019-02-25T09:40:25.018Z,83.20
2019-02-25T09:42:56.263Z,83.80
2019-02-25T09:47:58.583Z,80.60
2019-02-25T09:50:30.565Z,80.30
2019-02-25T09:53:02.657Z,78.00
2019-02-25T09:55:37.077Z,81.00
2019-02-25T10:00:40.718Z,79.30
2019-02-25T10:03:12.277Z,79.30
2019-02-25T10:05:46.312Z,81.00
2019-02-25T10:08:18.068Z,78.50
2019-02-25T10:10:49.840Z,79.70
2019-02-25T10:18:23.990Z,80.90
2019-02-25T10:20:55.997Z,80.50
2019-02-25T10:23:27.533Z,79.70
2019-02-25T10:28:30.722Z,79.10
2019-02-25T10:31:02.445Z,78.10
2019-02-25T10:33:34.032Z,78.10
2019-02-25T10:36:05.798Z,79.10
2019-02-25T10:38:38.575Z,79.80
2019-02-25T10:46:15.106Z,79.10
2019-02-25T10:48:47.518Z,78.50
2019-02-25T10:51:19.178Z,78.00
2019-02-25T10:53:52.031Z,71.80
2019-02-25T10:56:55.762Z,77.30
2019-02-25T11:01:58.529Z,75.40
2019-02-25T11:07:03.516Z,73.30
2019-02-25T11:09:42.456Z,75.00
2019-02-25T11:12:14.903Z,74.40
2019-02-25T11:14:46.607Z,73.30
2019-02-25T11:19:51.118Z,71.80
2019-02-25T11:24:53.518Z,72.40
2019-02-25T11:27:26.288Z,76.90
2019-02-25T11:29:58.158Z,75.50
2019-02-25T11:32:30.373Z,72.50
2019-02-25T11:35:04.060Z,72.00
2019-02-25T11:37:38.346Z,72.50
2019-02-25T11:40:10.112Z,69.20
2019-02-25T11:45:14.373Z,70.40
2019-02-25T11:47:46.445Z,72.80
2019-02-25T11:52:50.193Z,65.90
2019-02-25T11:55:21.987Z,65.50
2019-02-25T11:57:53.755Z,64.40
2019-02-25T12:00:27.193Z,66.00
2019-02-25T12:02:58.545Z,64.60
2019-02-25T12:05:30.792Z,64.80
2019-02-25T12:08:02.700Z,65.10
2019-02-25T12:10:34.389Z,65.60
2019-02-25T12:13:06.229Z,65.10
2019-02-25T12:15:37.738Z,64.20
2019-02-25T12:18:09.337Z,64.70
2019-02-25T12:20:40.952Z,65.30
2019-02-25T12:23:12.681Z,64.80
2019-02-25T12:25:45.056Z,65.20
2019-02-25T12:28:17.172Z,65.60
2019-02-25T12:30:49.118Z,65.40
2019-02-25T12:33:20.493Z,64.20
2019-02-25T12:35:52.267Z,64.40
2019-02-25T12:38:23.767Z,64.50
2019-02-25T12:40:55.684Z,64.20
2019-02-25T12:43:27.423Z,64.30
2019-02-25T12:45:59.114Z,62.70
2019-02-25T12:48:31.028Z,63.70
2019-02-25T12:51:02.861Z,62.70
2019-02-25T12:53:37.763Z,63.10
2019-02-25T12:56:09.273Z,61.80
2019-02-25T12:58:40.958Z,62.20
2019-02-25T13:01:13.043Z,62.00
2019-02-25T13:03:45.948Z,62.20
2019-02-25T13:06:18.505Z,61.50
2019-02-25T13:08:50.129Z,63.00
2019-02-25T13:11:22.132Z,61.30
2019-02-25T13:13:53.537Z,61.30
2019-02-25T13:16:26.756Z,60.70
2019-02-25T13:18:58.121Z,61.70
2019-02-25T13:21:29.703Z,60.60
2019-02-25T13:24:02.098Z,60.70
2019-02-25T13:26:36.600Z,60.50
2019-02-25T13:29:08.624Z,59.80
2019-02-25T13:31:40.141Z,60.30
2019-02-25T13:34:11.894Z,59.90
2019-02-25T13:36:44.731Z,59.70
2019-02-25T13:39:16.275Z,61.00
2019-02-25T13:41:48.089Z,60.40
2019-02-25T13:44:19.569Z,60.90
2019-02-25T13:46:51.169Z,59.10
2019-02-25T13:49:22.996Z,59.90
2019-02-25T13:51:55.151Z,60.10
2019-02-25T13:54:26.904Z,60.50
2019-02-25T13:59:34.249Z,63.70
2019-02-25T14:02:06.358Z,60.40
2019-02-25T14:04:37.985Z,61.40
2019-02-25T14:09:41.026Z,60.90
2019-02-25T14:12:15.109Z,64.00
2019-02-25T14:17:18.851Z,60.80
2019-02-25T14:19:51.970Z,62.30
2019-02-25T14:22:25.057Z,61.90
2019-02-25T14:24:56.757Z,60.80
2019-02-25T14:27:29.588Z,59.70
2019-02-25T14:32:34.591Z,60.40
2019-02-25T14:35:07.923Z,59.00
2019-02-25T14:37:41.118Z,59.60
2019-02-25T14:40:16.685Z,59.90
2019-02-25T14:47:59.686Z,59.60
2019-02-25T14:50:32.407Z,60.60
2019-02-25T14:53:08.576Z,60.30
2019-02-25T14:55:42.875Z,60.20
2019-02-25T14:58:16.933Z,60.90
2019-02-25T15:00:48.630Z,59.60
2019-02-25T15:03:22.513Z,59.30
2019-02-25T15:05:55.033Z,60.30
2019-02-25T15:08:28.491Z,60.50
2019-02-25T15:11:02.304Z,61.00
2019-02-25T15:13:35.412Z,60.60
2019-02-25T15:16:09.352Z,62.00
2019-02-25T15:18:41.123Z,62.30
2019-02-25T15:23:45.026Z,64.10
2019-02-25T15:26:18.963Z,62.70
2019-02-25T15:28:53.709Z,62.60
2019-02-25T15:31:25.469Z,61.40
2019-02-25T15:39:00.158Z,62.10
2019-02-25T15:46:36.363Z,64.00
2019-02-25T15:49:12.810Z,62.30
2019-02-25T15:54:15.907Z,63.60
2019-02-25T15:59:19.543Z,63.90
2019-02-25T16:13:09.274Z,68.90
2019-02-25T16:15:41.727Z,68.40
2019-02-25T16:21:13.233Z,67.50
2019-02-25T16:26:42.827Z,68.20
2019-02-25T16:32:26.907Z,67.60
2019-02-25T16:35:00.137Z,68.20
2019-02-25T16:37:35.137Z,69.20
2019-02-25T16:42:41.605Z,69.70
2019-02-25T16:45:15.349Z,68.20
2019-02-25T16:47:57.884Z,70.20
2019-02-25T16:50:29.961Z,68.60
2019-02-25T16:53:05.932Z,68.60
2019-02-25T16:55:37.117Z,68.00
2019-02-25T16:58:11.239Z,68.30
2019-02-25T17:00:42.206Z,67.40
2019-02-25T17:03:15.984Z,67.20
2019-02-25T17:05:47.665Z,68.30
2019-02-25T17:08:21.562Z,67.90
2019-02-25T17:10:53.969Z,66.60
2019-02-25T17:15:57.605Z,65.70
2019-02-25T17:18:30.914Z,66.30
2019-02-25T17:21:05.100Z,66.60
2019-02-25T17:23:38.799Z,66.40
2019-02-25T17:28:46.011Z,65.50
2019-02-25T17:31:18.695Z,65.30
2019-02-25T17:33:51.414Z,64.60
2019-02-25T17:36:23.984Z,64.80
2019-02-25T17:38:56.171Z,65.30
2019-02-25T17:41:27.671Z,64.70
2019-02-25T17:46:32.836Z,65.50
2019-02-25T17:49:06.019Z,65.10
2019-02-25T17:54:10.785Z,64.00
2019-02-25T17:56:46.922Z,62.60
2019-02-25T17:59:21.377Z,63.60
2019-02-25T18:01:54.959Z,64.30
2019-02-25T18:06:58.839Z,63.60
2019-02-25T18:09:31.057Z,64.10
2019-02-25T18:12:04.317Z,61.80
2019-02-25T18:14:36.959Z,60.30
2019-02-25T18:17:10.306Z,62.20
2019-02-25T18:19:45.629Z,63.70
2019-02-25T18:22:17.520Z,62.40
2019-02-25T18:24:50.988Z,63.80
2019-02-25T18:29:57.093Z,65.00
2019-02-25T18:32:30.468Z,64.50
2019-02-25T18:35:02.744Z,64.10
2019-02-25T18:37:37.231Z,66.30
2019-02-25T18:40:11.731Z,65.50
2019-02-25T18:47:49.119Z,68.80
2019-02-25T18:50:21.766Z,65.90
2019-02-25T18:52:57.237Z,67.90
2019-02-25T18:58:02.105Z,68.90
2019-02-25T19:00:35.631Z,70.00
2019-02-25T19:08:15.025Z,68.80
2019-02-25T19:15:54.855Z,70.10
2019-02-25T19:20:59.764Z,66.40
2019-02-25T19:23:36.895Z,70.80
2019-02-25T19:26:08.143Z,72.90
2019-02-25T19:28:44.034Z,71.90
2019-02-25T19:31:14.030Z,71.70
2019-02-25T19:33:45.961Z,76.30
2019-02-25T19:36:19.156Z,74.20
2019-02-25T19:38:52.199Z,76.40
2019-02-25T19:41:27.112Z,75.40
2019-02-25T19:44:01.974Z,75.80
2019-02-25T19:49:05.885Z,76.00
2019-02-25T20:46:06.057Z,73.60
2019-02-25T20:51:52.241Z,71.10
2019-02-25T20:59:38.892Z,72.90
2019-02-25T21:05:00.795Z,72.80
2019-02-25T21:11:10.979Z,72.20
2019-02-25T21:13:42.349Z,72.50
2019-02-25T21:16:24.103Z,69.60
2019-02-25T21:19:08.062Z,69.70
2019-02-25T21:24:19.495Z,70.20
2019-02-25T21:31:56.536Z,71.30
2019-02-25T21:37:02.921Z,71.50
2019-02-25T21:45:32.271Z,73.30
2019-02-25T21:48:04.925Z,73.30
2019-02-25T21:50:42.677Z,73.10
2019-02-25T21:58:31.050Z,72.80
2019-02-25T22:01:03.120Z,73.10
2019-02-25T22:03:47.960Z,73.20
2019-02-25T22:17:49.706Z,75.00
2019-02-25T22:31:20.546Z,75.20
2019-02-25T22:33:52.643Z,75.80
2019-02-25T22:39:15.300Z,76.40
2019-02-25T22:41:54.277Z,78.00
2019-02-25T23:15:51.144Z,77.60
2019-02-25T23:21:26.945Z,77.40
2019-02-25T23:24:04.720Z,77.70
2019-02-25T23:29:39.618Z,78.10
2019-02-25T23:40:14.892Z,76.70
2019-02-25T23:42:48.992Z,76.70
2019-02-25T23:45:23.056Z,77.60
2019-02-25T23:47:57.591Z,75.20
2019-02-25T23:50:29.600Z,76.80
2019-02-25T23:53:02.468Z,76.70
